createdAt,value
2019-02-23T00:00:21.149Z,34.47
2019-02-23T00:02:49.731Z,34.37
2019-02-23T00:05:18.293Z,35.60
2019-02-23T00:07:47.051Z,31.77
2019-02-23T00:10:15.866Z,35.00
2019-02-23T00:12:44.488Z,33.97
2019-02-23T00:15:13.117Z,36.43
2019-02-23T00:17:41.786Z,33.70
2019-02-23T00:20:10.386Z,34.70
2019-02-23T00:22:38.966Z,35.30
2019-02-23T00:25:07.696Z,33.40
2019-02-23T00:27:36.469Z,34.80
2019-02-23T00:30:06.841Z,32.63
2019-02-23T00:32:35.633Z,33.93
2019-02-23T00:35:04.608Z,37.70
2019-02-23T00:37:33.174Z,33.90
2019-02-23T00:40:01.782Z,38.73
2019-02-23T00:42:30.430Z,35.30
2019-02-23T00:44:59.123Z,39.43
2019-02-23T00:47:27.840Z,38.13
2019-02-23T00:49:56.543Z,36.50
2019-02-23T00:52:25.162Z,36.13
2019-02-23T00:54:53.792Z,35.03
2019-02-23T00:57:22.461Z,40.43
2019-02-23T00:59:51.214Z,38.17
2019-02-23T01:02:19.926Z,37.73
2019-02-23T01:04:48.482Z,37.07
2019-02-23T01:07:17.090Z,38.47
2019-02-23T01:09:45.714Z,38.90
2019-02-23T01:12:14.354Z,36.10
2019-02-23T01:14:42.969Z,38.00
2019-02-23T01:18:12.827Z,40.53
2019-02-23T01:20:41.688Z,38.30
2019-02-23T01:23:10.376Z,41.17
2019-02-23T01:25:38.984Z,38.63
2019-02-23T01:28:07.554Z,40.30
2019-02-23T01:30:36.576Z,37.63
2019-02-23T01:33:05.252Z,37.50
2019-02-23T01:35:33.855Z,38.23
2019-02-23T01:38:02.396Z,41.13
2019-02-23T01:40:30.974Z,40.57
2019-02-23T01:42:59.604Z,38.80
2019-02-23T01:45:28.199Z,38.33
2019-02-23T01:47:57.006Z,40.63
2019-02-23T01:50:25.600Z,42.17
2019-02-23T01:52:54.348Z,34.27
2019-02-23T01:55:22.888Z,35.30
2019-02-23T01:57:51.451Z,32.00
2019-02-23T02:00:20.212Z,29.77
2019-02-23T02:02:48.890Z,28.97
2019-02-23T02:05:17.451Z,28.33
2019-02-23T02:07:46.056Z,28.97
2019-02-23T02:10:15.283Z,28.70
2019-02-23T02:12:44.061Z,28.87
2019-02-23T02:15:14.735Z,27.33
2019-02-23T02:17:43.303Z,26.50
2019-02-23T02:20:11.916Z,27.67
2019-02-23T02:22:40.523Z,27.20
2019-02-23T02:25:09.367Z,28.93
2019-02-23T02:27:37.904Z,25.47
2019-02-23T02:30:10.129Z,27.47
2019-02-23T02:32:38.677Z,25.90
2019-02-23T02:35:09.116Z,26.87
2019-02-23T02:37:37.759Z,26.40
2019-02-23T02:40:08.062Z,27.90
2019-02-23T02:42:36.632Z,27.03
2019-02-23T02:45:08.003Z,26.03
2019-02-23T02:47:36.564Z,27.73
2019-02-23T02:50:07.175Z,26.13
2019-02-23T02:52:35.743Z,24.93
2019-02-23T02:55:05.450Z,26.07
2019-02-23T02:57:33.988Z,25.93
2019-02-23T03:00:02.567Z,25.43
2019-02-23T03:02:31.104Z,25.60
2019-02-23T03:04:59.669Z,26.50
2019-02-23T03:07:28.488Z,26.70
2019-02-23T03:09:57.032Z,26.57
2019-02-23T03:12:25.593Z,29.17
2019-02-23T03:14:54.093Z,26.33
2019-02-23T03:17:22.749Z,26.10
2019-02-23T03:19:51.321Z,25.83
2019-02-23T03:22:19.929Z,27.10
2019-02-23T03:24:48.494Z,27.60
2019-02-23T03:27:17.056Z,28.70
2019-02-23T03:29:46.050Z,26.30
2019-02-23T03:32:14.610Z,25.80
2019-02-23T03:34:43.153Z,26.13
2019-02-23T03:37:11.621Z,27.37
2019-02-23T03:39:40.202Z,25.80
2019-02-23T03:42:08.816Z,26.13
2019-02-23T03:44:37.359Z,25.67
2019-02-23T03:47:05.921Z,27.03
2019-02-23T03:49:34.458Z,26.20
2019-02-23T03:52:03.015Z,27.33
2019-02-23T03:54:31.505Z,28.33
2019-02-23T03:57:00.071Z,29.00
2019-02-23T03:59:28.530Z,26.90
2019-02-23T04:01:57.164Z,28.20
2019-02-23T04:04:25.629Z,28.13
2019-02-23T04:06:54.197Z,28.80
2019-02-23T04:09:22.741Z,28.07
2019-02-23T04:11:51.310Z,29.27
2019-02-23T04:14:19.849Z,27.77
2019-02-23T04:16:48.428Z,26.70
2019-02-23T04:19:16.888Z,26.37
2019-02-23T04:21:45.382Z,27.37
2019-02-23T04:24:13.891Z,28.20
2019-02-23T04:26:42.465Z,27.10
2019-02-23T04:29:11.035Z,27.00
2019-02-23T04:31:39.501Z,25.53
2019-02-23T04:34:08.323Z,27.97
2019-02-23T04:36:36.859Z,27.90
2019-02-23T04:39:07.043Z,25.80
2019-02-23T04:41:35.606Z,30.23
2019-02-23T04:44:04.215Z,28.97
2019-02-23T04:46:32.707Z,28.07
2019-02-23T04:49:01.278Z,28.37
2019-02-23T04:51:29.744Z,29.50
2019-02-23T04:53:58.311Z,29.43
2019-02-23T04:56:26.854Z,30.30
2019-02-23T04:58:55.488Z,29.23
2019-02-23T05:01:23.950Z,25.73
2019-02-23T05:03:52.440Z,30.90
2019-02-23T05:06:21.006Z,32.63
2019-02-23T05:08:49.575Z,29.97
2019-02-23T05:11:18.047Z,28.50
2019-02-23T05:13:46.614Z,30.73
2019-02-23T05:16:15.178Z,30.23
2019-02-23T05:18:43.739Z,31.00
2019-02-23T05:21:12.328Z,29.10
2019-02-23T05:23:40.808Z,29.10
2019-02-23T05:26:09.398Z,31.37
2019-02-23T05:28:37.939Z,30.27
2019-02-23T05:31:06.515Z,30.33
2019-02-23T05:33:35.013Z,30.10
2019-02-23T05:36:03.623Z,31.57
2019-02-23T05:38:32.133Z,30.50
2019-02-23T05:41:00.672Z,29.40
2019-02-23T05:43:29.316Z,33.20
2019-02-23T05:45:57.849Z,30.80
2019-02-23T05:48:26.343Z,28.00
2019-02-23T05:50:54.803Z,33.77
2019-02-23T05:53:23.263Z,33.03
2019-02-23T05:55:51.759Z,30.57
2019-02-23T05:58:20.229Z,33.33
2019-02-23T06:00:49.423Z,32.33
2019-02-23T06:03:17.947Z,32.90
2019-02-23T06:05:46.517Z,32.43
2019-02-23T06:08:15.064Z,31.63
2019-02-23T06:10:44.798Z,31.03
2019-02-23T06:13:13.480Z,32.33
2019-02-23T06:15:42.013Z,34.30
2019-02-23T06:18:10.520Z,32.60
2019-02-23T06:20:39.105Z,31.40
2019-02-23T06:23:07.640Z,30.33
2019-02-23T06:25:36.235Z,31.90
2019-02-23T06:28:04.977Z,33.37
2019-02-23T06:30:33.564Z,31.80
2019-02-23T06:33:02.131Z,32.07
2019-02-23T06:35:30.627Z,35.47
2019-02-23T06:37:59.199Z,33.40
2019-02-23T06:40:27.695Z,36.03
2019-02-23T06:42:57.924Z,33.17
2019-02-23T06:45:26.447Z,34.87
2019-02-23T06:47:54.973Z,34.80
2019-02-23T06:50:23.478Z,34.93
2019-02-23T06:52:52.171Z,35.60
2019-02-23T06:55:20.804Z,39.30
2019-02-23T06:57:49.345Z,41.27
2019-02-23T07:00:17.919Z,34.07
2019-02-23T07:02:46.449Z,38.07
2019-02-23T07:05:15.029Z,37.90
2019-02-23T07:07:43.644Z,31.27
2019-02-23T07:10:13.606Z,34.33
2019-02-23T07:12:42.160Z,32.93
2019-02-23T07:15:11.152Z,38.33
2019-02-23T07:17:39.646Z,34.77
2019-02-23T07:20:09.991Z,34.40
2019-02-23T07:22:38.528Z,38.97
2019-02-23T07:25:10.611Z,36.33
2019-02-23T07:27:39.162Z,40.30
2019-02-23T07:30:13.012Z,41.17
2019-02-23T07:32:41.526Z,39.27
2019-02-23T07:35:10.193Z,39.03
2019-02-23T07:37:38.803Z,38.77
2019-02-23T07:40:16.054Z,43.03
2019-02-23T07:42:44.651Z,42.43
2019-02-23T07:45:13.247Z,43.07
2019-02-23T07:47:42.600Z,41.10
2019-02-23T07:50:13.418Z,40.50
2019-02-23T07:52:42.021Z,43.50
2019-02-23T07:55:10.663Z,40.67
2019-02-23T07:57:39.125Z,41.40
2019-02-23T08:00:12.683Z,39.47
2019-02-23T08:02:41.144Z,41.37
2019-02-23T08:05:10.589Z,40.10
2019-02-23T08:07:39.880Z,40.67
2019-02-23T08:10:10.878Z,48.13
2019-02-23T08:12:39.387Z,39.37
2019-02-23T08:15:09.963Z,39.83
2019-02-23T08:17:38.455Z,40.53
2019-02-23T08:20:09.668Z,39.93
2019-02-23T08:22:38.315Z,43.53
2019-02-23T08:25:09.793Z,41.30
2019-02-23T08:27:38.377Z,41.57
2019-02-23T08:30:16.947Z,41.43
2019-02-23T08:32:45.525Z,39.73
2019-02-23T08:35:14.080Z,41.57
2019-02-23T08:37:42.679Z,43.17
2019-02-23T08:40:15.957Z,42.77
2019-02-23T08:42:44.598Z,45.73
2019-02-23T08:45:13.212Z,41.20
2019-02-23T08:47:41.811Z,45.03
2019-02-23T08:50:14.891Z,45.70
2019-02-23T08:52:49.121Z,41.77
2019-02-23T08:55:13.783Z,42.13
2019-02-23T08:57:42.269Z,41.30
2019-02-23T09:00:13.444Z,43.50
2019-02-23T09:02:42.020Z,41.90
2019-02-23T09:05:11.640Z,44.67
2019-02-23T09:07:40.174Z,41.30
2019-02-23T09:10:11.461Z,43.83
2019-02-23T09:12:40.067Z,41.80
2019-02-23T09:15:09.851Z,41.77
2019-02-23T09:17:38.359Z,41.17
2019-02-23T09:20:09.799Z,39.80
2019-02-23T09:22:38.291Z,42.37
2019-02-23T09:25:09.136Z,44.03
2019-02-23T09:27:37.711Z,40.50
2019-02-23T09:30:11.784Z,44.87
2019-02-23T09:32:40.252Z,43.87
2019-02-23T09:35:09.632Z,42.20
2019-02-23T09:37:38.282Z,44.07
2019-02-23T09:40:12.832Z,44.67
2019-02-23T09:42:41.675Z,42.77
2019-02-23T09:45:11.851Z,44.33
2019-02-23T09:47:40.463Z,42.77
2019-02-23T09:50:09.174Z,44.47
2019-02-23T09:52:37.679Z,43.30
2019-02-23T09:55:07.892Z,41.57
2019-02-23T09:57:36.506Z,38.50
2019-02-23T10:00:08.507Z,42.07
2019-02-23T10:02:37.011Z,41.23
2019-02-23T10:05:06.915Z,42.47
2019-02-23T10:07:35.562Z,44.97
2019-02-23T10:10:06.440Z,47.93
2019-02-23T10:12:35.008Z,40.97
2019-02-23T10:15:04.784Z,41.17
2019-02-23T10:17:33.348Z,41.10
2019-02-23T10:20:01.938Z,41.30
2019-02-23T10:22:30.530Z,38.33
2019-02-23T10:24:59.063Z,41.40
2019-02-23T10:27:27.636Z,41.73
2019-02-23T10:29:56.461Z,40.80
2019-02-23T10:32:24.963Z,45.50
2019-02-23T10:34:53.468Z,41.83
2019-02-23T10:37:22.008Z,36.03
2019-02-23T10:39:50.619Z,37.97
2019-02-23T10:42:19.166Z,36.00
2019-02-23T10:44:47.668Z,38.27
2019-02-23T10:47:16.238Z,37.73
2019-02-23T10:49:44.741Z,37.17
2019-02-23T10:52:13.236Z,35.27
2019-02-23T10:54:41.692Z,33.27
2019-02-23T10:57:10.199Z,37.37
2019-02-23T10:59:38.809Z,35.43
2019-02-23T11:02:07.457Z,35.30
2019-02-23T11:04:35.923Z,33.67
2019-02-23T11:07:23.899Z,36.63
2019-02-23T11:09:52.430Z,36.93
2019-02-23T11:12:21.065Z,36.50
2019-02-23T11:14:49.590Z,35.77
2019-02-23T11:17:18.215Z,36.77
2019-02-23T11:19:46.778Z,37.03
2019-02-23T11:22:15.288Z,34.03
2019-02-23T11:24:43.747Z,33.87
2019-02-23T11:27:12.230Z,33.60
2019-02-23T11:29:40.759Z,31.70
2019-02-23T11:32:09.239Z,34.37
2019-02-23T11:34:37.803Z,31.90
2019-02-23T11:37:06.336Z,32.03
2019-02-23T11:39:34.843Z,33.63
2019-02-23T11:42:03.314Z,34.00
2019-02-23T11:44:31.843Z,34.73
2019-02-23T11:47:00.528Z,31.87
2019-02-23T11:49:29.299Z,28.93
2019-02-23T11:51:57.760Z,32.47
2019-02-23T11:54:26.259Z,27.30
2019-02-23T11:56:54.727Z,31.17
2019-02-23T11:59:23.226Z,28.47
2019-02-23T12:01:51.829Z,29.50
2019-02-23T12:04:20.347Z,29.60
2019-02-23T12:06:48.977Z,31.00
2019-02-23T12:09:17.435Z,31.13
2019-02-23T12:11:45.919Z,34.40
2019-02-23T12:14:14.412Z,30.13
2019-02-23T12:16:42.983Z,29.50
2019-02-23T12:19:11.475Z,29.40
2019-02-23T12:21:39.936Z,30.17
2019-02-23T12:24:08.423Z,30.57
2019-02-23T12:26:36.915Z,30.43
2019-02-23T12:29:05.439Z,28.43
2019-02-23T12:31:33.933Z,28.77
2019-02-23T12:34:02.505Z,28.83
2019-02-23T12:36:30.964Z,30.00
2019-02-23T12:38:59.528Z,27.60
2019-02-23T12:41:27.986Z,28.50
2019-02-23T12:43:56.623Z,27.97
2019-02-23T12:46:25.083Z,30.67
2019-02-23T12:48:53.571Z,26.10
2019-02-23T12:51:22.034Z,25.17
2019-02-23T12:53:50.528Z,25.27
2019-02-23T12:56:19.056Z,22.47
2019-02-23T12:58:48.751Z,25.47
2019-02-23T13:01:17.508Z,26.57
2019-02-23T13:03:45.966Z,25.43
2019-02-23T13:06:14.455Z,25.40
2019-02-23T13:09:20.907Z,26.37
2019-02-23T13:11:57.985Z,28.23
2019-02-23T13:14:50.440Z,28.43
2019-02-23T13:17:24.784Z,28.07
2019-02-23T13:20:22.316Z,31.93
2019-02-23T13:23:12.079Z,27.13
2019-02-23T13:25:52.958Z,26.93
2019-02-23T13:28:27.371Z,27.73
2019-02-23T13:31:10.727Z,29.87
2019-02-23T13:34:11.287Z,25.13
2019-02-23T13:36:42.850Z,24.90
2019-02-23T13:39:25.794Z,25.83
2019-02-23T13:42:29.375Z,25.73
2019-02-23T13:45:31.463Z,23.33
2019-02-23T13:48:17.699Z,22.10
2019-02-23T13:51:17.992Z,23.37
2019-02-23T13:54:01.380Z,23.17
2019-02-23T13:56:48.168Z,21.27
2019-02-23T13:59:34.911Z,19.83
2019-02-23T14:02:41.591Z,21.70
2019-02-23T14:05:13.123Z,19.97
2019-02-23T14:07:49.828Z,22.80
2019-02-23T14:10:48.587Z,21.57
2019-02-23T14:13:37.776Z,22.93
2019-02-23T14:16:12.015Z,22.80
2019-02-23T14:18:55.220Z,20.03
2019-02-23T14:21:47.740Z,21.50
2019-02-23T14:24:25.074Z,21.43
2019-02-23T14:27:12.972Z,20.43
2019-02-23T14:29:53.319Z,20.87
2019-02-23T14:32:47.121Z,21.03
2019-02-23T14:35:30.758Z,22.10
2019-02-23T14:38:14.516Z,21.40
2019-02-23T14:40:55.079Z,25.73
2019-02-23T14:44:03.580Z,23.67
2019-02-23T14:46:43.926Z,24.53
2019-02-23T14:49:21.156Z,23.53
2019-02-23T14:52:09.491Z,22.90
2019-02-23T14:54:41.043Z,23.47
2019-02-23T14:57:15.759Z,24.57
2019-02-23T15:00:14.698Z,21.43
2019-02-23T15:03:05.594Z,21.17
2019-02-23T15:05:54.786Z,19.07
2019-02-23T15:08:29.347Z,21.17
2019-02-23T15:11:19.308Z,19.77
2019-02-23T15:14:07.642Z,21.17
2019-02-23T15:16:51.320Z,22.70
2019-02-23T15:19:39.516Z,20.17
2019-02-23T15:22:14.016Z,21.13
2019-02-23T15:25:13.279Z,19.37
2019-02-23T15:27:40.959Z,17.63
2019-02-23T15:30:12.603Z,20.97
2019-02-23T15:32:50.145Z,21.70
2019-02-23T15:35:30.522Z,18.97
2019-02-23T15:38:21.819Z,19.27
2019-02-23T15:41:13.294Z,20.20
2019-02-23T15:43:50.506Z,20.03
2019-02-23T15:46:40.295Z,19.60
2019-02-23T15:49:31.516Z,19.80
2019-02-23T15:52:01.324Z,23.27
2019-02-23T15:54:30.250Z,20.07
2019-02-23T15:56:58.850Z,22.13
2019-02-23T15:59:27.412Z,21.00
2019-02-23T16:01:55.970Z,19.93
2019-02-23T16:04:24.476Z,22.73
2019-02-23T16:06:53.165Z,21.90
2019-02-23T16:09:21.651Z,21.40
2019-02-23T16:11:50.103Z,21.50
2019-02-23T16:14:18.993Z,21.00
2019-02-23T16:16:47.751Z,22.87
2019-02-23T16:19:16.355Z,20.13
2019-02-23T16:21:44.921Z,18.67
2019-02-23T16:24:13.616Z,18.10
2019-02-23T16:26:42.179Z,19.67
2019-02-23T16:29:10.890Z,20.20
2019-02-23T16:31:39.464Z,19.83
2019-02-23T16:34:08.104Z,20.53
2019-02-23T16:36:36.580Z,21.07
2019-02-23T16:39:08.820Z,22.40
2019-02-23T16:41:37.430Z,21.60
2019-02-23T16:44:06.063Z,23.87
2019-02-23T16:46:34.596Z,23.10
2019-02-23T16:49:03.071Z,23.30
2019-02-23T16:51:31.572Z,22.50
2019-02-23T16:54:00.032Z,22.87
2019-02-23T16:56:28.707Z,21.20
2019-02-23T16:58:58.913Z,22.27
2019-02-23T17:01:27.535Z,22.83
2019-02-23T17:03:56.120Z,24.20
2019-02-23T17:06:24.632Z,21.43
2019-02-23T17:08:53.119Z,22.60
2019-02-23T17:11:21.571Z,25.40
2019-02-23T17:13:50.062Z,25.47
2019-02-23T17:16:18.619Z,23.93
2019-02-23T17:18:47.086Z,22.83
2019-02-23T17:21:15.581Z,22.23
2019-02-23T17:23:44.111Z,25.60
2019-02-23T17:26:12.604Z,31.30
2019-02-23T17:28:41.063Z,24.93
2019-02-23T17:31:09.580Z,24.73
2019-02-23T17:33:38.107Z,21.90
2019-02-23T17:36:06.669Z,23.90
2019-02-23T17:38:35.335Z,22.80
2019-02-23T17:41:03.803Z,25.47
2019-02-23T17:43:32.299Z,25.03
2019-02-23T17:46:00.841Z,23.57
2019-02-23T17:50:57.816Z,26.43
2019-02-23T17:53:26.379Z,26.50
2019-02-23T17:55:54.880Z,23.90
2019-02-23T17:58:23.376Z,24.53
2019-02-23T18:00:51.867Z,26.03
2019-02-23T18:03:20.561Z,24.23
2019-02-23T18:05:49.094Z,25.17
2019-02-23T18:08:17.668Z,27.20
2019-02-23T18:10:46.161Z,27.30
2019-02-23T18:13:14.623Z,26.50
2019-02-23T18:15:43.120Z,25.50
2019-02-23T18:18:11.611Z,25.83
2019-02-23T18:20:40.080Z,25.20
2019-02-23T18:23:08.580Z,24.67
2019-02-23T18:25:37.042Z,25.13
2019-02-23T18:28:05.598Z,26.07
2019-02-23T18:30:34.154Z,27.60
2019-02-23T18:33:02.655Z,25.97
2019-02-23T18:35:31.194Z,23.60
2019-02-23T18:37:59.689Z,26.07
2019-02-23T18:40:28.147Z,28.10
2019-02-23T18:42:56.611Z,24.37
2019-02-23T18:45:25.180Z,25.03
2019-02-23T18:47:53.635Z,28.33
2019-02-23T18:50:22.126Z,27.73
2019-02-23T18:52:50.628Z,26.43
2019-02-23T18:55:19.092Z,24.60
2019-02-23T18:57:48.121Z,26.97
2019-02-23T19:00:24.217Z,30.73
2019-02-23T19:02:46.944Z,26.80
2019-02-23T19:05:15.403Z,28.33
2019-02-23T19:07:43.891Z,28.63
2019-02-23T19:10:13.927Z,28.53
2019-02-23T19:12:42.468Z,26.73
2019-02-23T19:15:14.083Z,30.37
2019-02-23T19:17:42.651Z,25.20
2019-02-23T19:20:13.358Z,27.10
2019-02-23T19:22:41.913Z,29.40
2019-02-23T19:25:11.544Z,27.17
2019-02-23T19:27:40.150Z,29.70
2019-02-23T19:30:11.559Z,30.93
2019-02-23T19:32:40.548Z,27.50
2019-02-23T19:35:09.236Z,29.90
2019-02-23T19:37:37.793Z,27.93
2019-02-23T19:40:08.696Z,32.33
2019-02-23T19:42:37.195Z,30.60
2019-02-23T19:45:08.804Z,29.90
2019-02-23T19:47:37.739Z,30.50
2019-02-23T19:50:15.672Z,30.77
2019-02-23T19:52:44.295Z,31.37
2019-02-23T19:55:15.302Z,31.07
2019-02-23T19:57:43.890Z,31.67
2019-02-23T20:00:12.561Z,30.43
2019-02-23T20:02:41.120Z,28.73
2019-02-23T20:05:10.735Z,32.07
2019-02-23T20:07:39.281Z,31.97
2019-02-23T20:10:11.074Z,31.27
2019-02-23T20:12:39.611Z,31.40
2019-02-23T20:15:11.667Z,30.90
2019-02-23T20:17:40.201Z,31.23
2019-02-23T20:20:09.528Z,29.43
2019-02-23T20:22:37.988Z,32.43
2019-02-23T20:25:09.841Z,33.27
2019-02-23T20:27:38.295Z,32.00
2019-02-23T20:30:09.846Z,32.77
2019-02-23T20:32:38.424Z,31.67
2019-02-23T20:35:08.340Z,35.20
2019-02-23T20:37:36.871Z,35.13
2019-02-23T20:40:08.078Z,35.17
2019-02-23T20:42:36.610Z,40.60
2019-02-23T20:45:07.134Z,34.70
2019-02-23T20:47:35.745Z,34.20
2019-02-23T20:50:08.259Z,34.00
2019-02-23T20:52:36.746Z,41.07
2019-02-23T20:55:07.568Z,32.97
2019-02-23T20:57:36.204Z,33.57
2019-02-23T21:00:07.311Z,34.23
2019-02-23T21:06:07.919Z,32.80
2019-02-23T21:08:36.471Z,32.03
2019-02-23T21:11:05.041Z,39.97
2019-02-23T21:13:33.504Z,33.33
2019-02-23T21:16:02.092Z,40.67
2019-02-23T21:18:30.551Z,36.33
2019-02-23T21:20:59.020Z,41.50
2019-02-23T21:23:27.599Z,37.80
2019-02-23T21:25:56.065Z,47.80
2019-02-23T21:28:24.555Z,51.17
2019-02-23T21:30:53.053Z,50.13
2019-02-23T21:33:21.553Z,46.30
2019-02-23T21:35:50.087Z,52.23
2019-02-23T21:38:18.588Z,59.07
2019-02-23T21:40:47.070Z,57.60
2019-02-23T21:43:15.620Z,55.40
2019-02-23T21:45:44.081Z,48.53
2019-02-23T21:48:12.572Z,44.37
2019-02-23T21:50:41.130Z,42.47
2019-02-23T21:53:09.624Z,42.03
2019-02-23T21:55:38.183Z,40.43
2019-02-23T21:58:06.712Z,41.70
2019-02-23T22:00:35.224Z,43.07
2019-02-23T22:03:03.761Z,36.10
2019-02-23T22:05:32.302Z,40.00
2019-02-23T22:08:00.783Z,38.53
2019-02-23T22:10:29.301Z,36.97
2019-02-23T22:12:57.832Z,38.53
2019-02-23T22:15:26.297Z,43.00
2019-02-23T22:17:54.807Z,44.77
2019-02-23T22:20:23.373Z,44.67
2019-02-23T22:22:51.912Z,43.00
2019-02-23T22:25:20.451Z,41.87
2019-02-23T22:27:49.017Z,37.70
2019-02-23T22:30:17.556Z,40.37
2019-02-23T22:32:46.135Z,41.50
2019-02-23T22:35:14.740Z,37.17
2019-02-23T22:37:43.314Z,39.37
2019-02-23T22:40:11.771Z,40.43
2019-02-23T22:42:40.255Z,37.53
2019-02-23T22:45:09.055Z,37.87
2019-02-23T22:47:37.539Z,40.00
2019-02-23T22:50:08.244Z,45.03
2019-02-23T22:52:36.806Z,38.03
2019-02-23T22:55:05.935Z,42.10
2019-02-23T22:57:40.332Z,39.50
2019-02-23T23:00:07.442Z,37.80
2019-02-23T23:02:35.948Z,38.03
2019-02-23T23:05:05.093Z,39.63
2019-02-23T23:07:33.612Z,42.67
2019-02-23T23:10:02.208Z,46.27
2019-02-23T23:12:30.667Z,49.83
2019-02-23T23:14:59.156Z,39.83
2019-02-23T23:17:27.646Z,46.73
2019-02-23T23:19:57.077Z,42.00
2019-02-23T23:22:25.688Z,44.83
2019-02-23T23:24:54.274Z,40.10
2019-02-23T23:27:22.736Z,41.00
2019-02-23T23:29:51.291Z,42.20
2019-02-23T23:32:19.860Z,39.27
2019-02-23T23:34:48.434Z,41.17
2019-02-23T23:37:17.010Z,38.13
2019-02-23T23:39:45.583Z,37.70
2019-02-23T23:42:14.124Z,39.27
2019-02-23T23:44:42.626Z,40.80
2019-02-23T23:47:11.191Z,41.13
2019-02-23T23:49:39.660Z,38.73
2019-02-23T23:52:08.168Z,37.77
2019-02-23T23:54:36.667Z,38.70
2019-02-23T23:57:05.132Z,39.33
2019-02-23T23:59:33.596Z,39.20
